Kezdőlap
METAR-TAF:

METAR-TAF

Repülőterek :

Albert, Franciaország

földrajzi szélesség: 49-58-21N, földrajzi hosszúság: 002-41-29E, magasság: 111 m

Jelenlegi meteorológiai megfigyelések

A jelentés 14 perccel ezelõtt készült, 16:30 UTC
Déli szél 11 kt
Hőmérséklet 6°C
Páratartalom 87%
Légköri nyomás 1005 hPa
Látótávolság 10 km, vagy több
felhőtlen 1500 m magasságban, és nincs gomolyfelhõ

METAR: LFAQ 151630Z AUTO 19011KT CAVOK 06/04 Q1005 NOSIG

Idő: 17:44 (16:44 UTC)

Előrejelzés

A jelentés 2 órával és 44 perccel ezelõtt készült, 14:00 UTC
Az előrejelzés 15-én 15 óra UTC és 15-én 24 óra UTC között érvényes
Délnyugati szél 13 kt
Látótávolság 10 km, vagy több
Szórványos felhőzet 3000 lábon
15-én 19 óra UTC és 15-én 21 óra UTC között fokozatosan kialakuló
Szakadozott felhőzet 700 lábon

TAF: LFAQ 151400Z 1515/1524 22013KT 9999 SCT030 BECMG 1519/1521 BKN007

Meteorológiai megfigyelések és előrejelzések több, mint 4000 repülőtéren (METAR és TAF jelentéseket).

A térképen piros és sárga pontok jelzik az elérhető meteorológiai állomásokat.

Mozgassa az egeret a pont fölött, hogy megjelenjen az állomás neve.

Azután kattintson az időjárási megfigyelések és előrejelzések megtekintéséhez.

A térkép megváltoztatása: kattintson a fekete keresztel jelölt zöld gombra ráközelítéshez, a vonallal jelölt zöld gombra távolításhoz, vagy a zöld nyilakra a szomszédos térképek eléréséhez.


METAR-TAF: